Time;durP1;ratioP1;P1;durP2;ratioP2;P2;SDS_P1;SDS_P2;PMS_P1;PMS_P2;Temp;Humidity;BMP_temperature;BMP_pressure;BME280_temperature;BME280_humidity;BME280_pressure;Samples;Min_cycle;Max_cycle;Signal;HPM_P1;HPM_P2
2024/04/20 00:00:25;;;;;;;6.30;1.40;;;7.30;99.90;;;;;;5474585;26;19994;-78
2024/04/20 00:02:51;;;;;;;4.45;1.15;;;7.40;99.90;;;;;;5464039;26;20070;-78
2024/04/20 00:05:18;;;;;;;4.95;1.33;;;7.40;99.90;;;;;;5459612;26;19999;-78
2024/04/20 00:07:46;;;;;;;3.40;1.10;;;7.40;99.90;;;;;;5471373;26;19994;-79
2024/04/20 00:10:12;;;;;;;13.27;1.33;;;7.30;99.90;;;;;;5472454;26;19994;-79
2024/04/20 00:12:38;;;;;;;5.05;1.17;;;7.30;99.90;;;;;;5458703;26;20001;-78
2024/04/20 00:15:05;;;;;;;5.20;1.13;;;7.30;99.90;;;;;;5464087;26;20565;-77
2024/04/20 00:17:30;;;;;;;5.28;1.10;;;7.30;99.90;;;;;;5473282;26;20018;-77
2024/04/20 00:19:56;;;;;;;3.60;1.00;;;7.30;99.90;;;;;;5446036;26;19995;-77
2024/04/20 00:22:22;;;;;;;4.97;1.38;;;7.30;99.90;;;;;;5473106;26;20330;-77
2024/04/20 00:24:49;;;;;;;4.15;1.10;;;7.30;99.90;;;;;;5460931;26;20654;-77
2024/04/20 00:27:15;;;;;;;5.55;1.20;;;7.30;99.90;;;;;;5481972;26;20332;-77
2024/04/20 00:29:41;;;;;;;2.15;1.05;;;7.30;99.90;;;;;;5458079;26;20009;-77
2024/04/20 00:32:06;;;;;;;3.67;1.25;;;7.30;99.90;;;;;;5462385;26;20389;-78
2024/04/20 00:34:32;;;;;;;5.18;1.08;;;7.30;99.90;;;;;;5473288;26;20092;-77
2024/04/20 00:36:58;;;;;;;2.35;0.90;;;7.30;99.90;;;;;;5464217;26;20009;-77
2024/04/20 00:39:23;;;;;;;3.22;1.10;;;7.30;99.90;;;;;;5458485;26;20348;-77
2024/04/20 00:41:52;;;;;;;5.05;1.00;;;7.20;99.90;;;;;;5468385;26;20085;-77
2024/04/20 00:44:18;;;;;;;4.82;1.23;;;7.30;99.90;;;;;;5479244;26;20454;-77
2024/04/20 00:46:46;;;;;;;6.07;1.35;;;7.30;99.90;;;;;;5457841;26;20507;-77
2024/04/20 00:49:12;;;;;;;3.90;0.98;;;7.20;99.90;;;;;;5462195;26;20005;-77
2024/04/20 00:51:40;;;;;;;2.92;1.10;;;7.20;99.90;;;;;;5454769;26;19999;-77
2024/04/20 00:54:06;;;;;;;1.98;0.98;;;7.20;99.90;;;;;;5471925;26;20488;-76
2024/04/20 00:56:33;;;;;;;2.78;1.17;;;7.20;99.90;;;;;;5470291;26;20002;-77
2024/04/20 00:59:00;;;;;;;5.05;1.20;;;7.10;99.90;;;;;;5474563;26;19999;-77
2024/04/20 01:01:25;;;;;;;2.75;0.88;;;7.20;99.90;;;;;;5467195;26;20034;-77
2024/04/20 01:03:51;;;;;;;2.17;0.90;;;7.20;99.90;;;;;;5457817;26;19994;-77
2024/04/20 01:06:17;;;;;;;1.42;0.70;;;7.10;99.90;;;;;;5467835;26;20340;-77
2024/04/20 01:08:43;;;;;;;3.50;0.85;;;7.10;99.90;;;;;;5473270;26;20762;-77
2024/04/20 01:11:09;;;;;;;1.85;0.85;;;7.10;99.90;;;;;;5483767;26;19990;-77
2024/04/20 01:13:35;;;;;;;1.50;0.90;;;7.10;99.90;;;;;;5483199;26;20006;-78
2024/04/20 01:16:01;;;;;;;2.80;0.80;;;7.10;99.90;;;;;;5457770;26;19994;-77
2024/04/20 01:18:26;;;;;;;2.05;0.88;;;7.10;99.90;;;;;;5483572;26;20335;-77
2024/04/20 01:20:52;;;;;;;3.67;0.90;;;7.10;99.90;;;;;;5458223;26;19994;-78
2024/04/20 01:23:18;;;;;;;2.22;0.90;;;7.10;99.90;;;;;;5466949;26;20002;-78
2024/04/20 01:25:51;;;;;;;4.90;1.08;;;7.10;99.90;;;;;;5472448;26;19998;-76
2024/04/20 01:28:17;;;;;;;3.55;1.10;;;7.10;99.90;;;;;;5461505;26;20405;-76
2024/04/20 01:30:43;;;;;;;2.70;0.80;;;7.10;99.90;;;;;;5483144;26;20463;-76
2024/04/20 01:33:09;;;;;;;3.05;0.90;;;7.10;99.90;;;;;;5471887;26;20010;-77
2024/04/20 01:35:37;;;;;;;2.10;1.02;;;7.10;99.90;;;;;;5469211;26;20002;-77
2024/04/20 01:38:03;;;;;;;1.63;0.88;;;7.10;99.90;;;;;;5456961;26;20005;-77
2024/04/20 01:40:29;;;;;;;1.92;0.90;;;7.00;99.90;;;;;;5464287;26;20010;-77
2024/04/20 01:42:55;;;;;;;2.13;0.85;;;7.00;99.90;;;;;;5476116;26;20014;-78
2024/04/20 01:45:20;;;;;;;1.58;0.80;;;7.00;99.90;;;;;;5467704;26;20011;-78
2024/04/20 01:47:46;;;;;;;2.58;0.90;;;7.00;99.90;;;;;;5472138;26;19998;-78
2024/04/20 01:50:12;;;;;;;5.22;1.00;;;7.00;99.90;;;;;;5476204;26;20375;-77
2024/04/20 01:52:38;;;;;;;1.58;0.60;;;7.00;99.90;;;;;;5467049;26;20013;-76
2024/04/20 01:55:04;;;;;;;3.45;0.85;;;7.00;99.90;;;;;;5472644;26;20394;-77
2024/04/20 01:57:30;;;;;;;1.55;0.70;;;7.00;99.90;;;;;;5458005;26;20008;-77
2024/04/20 01:59:56;;;;;;;5.15;0.98;;;7.00;99.90;;;;;;5468122;26;20072;-77
2024/04/20 02:02:22;;;;;;;6.05;0.95;;;7.00;99.90;;;;;;5456633;26;20066;-77
2024/04/20 02:04:48;;;;;;;3.45;0.80;;;7.00;99.90;;;;;;5461329;26;20003;-76
2024/04/20 02:07:14;;;;;;;4.10;1.00;;;7.00;99.90;;;;;;5471905;26;19998;-77
2024/04/20 02:09:40;;;;;;;2.92;1.00;;;7.00;99.90;;;;;;5462573;26;20017;-77
2024/04/20 02:12:06;;;;;;;2.20;0.95;;;7.00;99.90;;;;;;5456698;26;20009;-78
2024/04/20 02:14:32;;;;;;;3.80;1.00;;;7.00;99.90;;;;;;5470172;26;20663;-77
2024/04/20 02:16:58;;;;;;;6.80;1.50;;;6.90;99.90;;;;;;5469059;26;19994;-78
2024/04/20 02:19:23;;;;;;;4.38;1.02;;;6.90;99.90;;;;;;5457216;26;20002;-76
2024/04/20 02:21:50;;;;;;;3.85;1.10;;;6.90;99.90;;;;;;5461106;26;20030;-77
2024/04/20 02:24:16;;;;;;;4.75;0.85;;;6.90;99.90;;;;;;5471970;26;20002;-76
2024/04/20 02:26:41;;;;;;;4.63;1.20;;;6.90;99.90;;;;;;5462555;26;20043;-76
2024/04/20 02:29:07;;;;;;;7.97;1.40;;;7.00;99.90;;;;;;5456813;26;20046;-77
2024/04/20 02:31:33;;;;;;;4.28;1.00;;;6.90;99.90;;;;;;5469962;26;20460;-77
2024/04/20 02:33:58;;;;;;;5.30;1.00;;;6.90;99.90;;;;;;5468799;26;20017;-77
2024/04/20 02:36:25;;;;;;;2.45;0.90;;;6.90;99.90;;;;;;5457074;26;20002;-77
2024/04/20 02:38:51;;;;;;;4.57;0.90;;;6.90;99.90;;;;;;5461656;26;20347;-79
2024/04/20 02:41:17;;;;;;;3.58;1.00;;;6.90;99.90;;;;;;5472153;26;20002;-78
2024/04/20 02:43:43;;;;;;;9.50;1.00;;;6.90;99.90;;;;;;5449356;26;20417;-78
2024/04/20 02:46:09;;;;;;;3.47;0.88;;;6.90;99.90;;;;;;5448141;26;20014;-78
2024/04/20 02:48:35;;;;;;;5.05;1.00;;;6.90;99.90;;;;;;5469068;26;20003;-78
2024/04/20 02:51:01;;;;;;;5.55;0.75;;;6.90;99.90;;;;;;5453181;26;20041;-78
2024/04/20 02:53:27;;;;;;;3.13;0.80;;;6.90;99.90;;;;;;5445906;26;20003;-78
2024/04/20 02:55:52;;;;;;;3.05;0.80;;;6.90;99.90;;;;;;5482754;26;20406;-78
2024/04/20 02:58:18;;;;;;;3.70;0.85;;;6.90;99.90;;;;;;5457313;26;19999;-78
2024/04/20 03:00:58;;;;;;;6.07;0.80;;;6.90;99.90;;;;;;5471141;26;20026;-78
2024/04/20 03:03:25;;;;;;;5.07;0.80;;;6.90;99.90;;;;;;5469794;26;20018;-77
2024/04/20 03:05:51;;;;;;;2.13;0.45;;;6.90;99.90;;;;;;5455946;26;20002;-77
2024/04/20 03:08:16;;;;;;;3.58;0.70;;;6.90;99.90;;;;;;5460950;26;20095;-78
2024/04/20 03:10:42;;;;;;;5.30;0.90;;;6.90;99.90;;;;;;5471242;26;20075;-77
2024/04/20 03:13:07;;;;;;;4.28;0.60;;;6.90;99.90;;;;;;5461773;26;20071;-77
2024/04/20 03:15:33;;;;;;;7.53;0.77;;;6.90;99.90;;;;;;5456568;26;20006;-77
2024/04/20 03:17:59;;;;;;;6.95;0.82;;;6.90;99.90;;;;;;5468755;26;20017;-76
2024/04/20 03:20:24;;;;;;;5.00;1.13;;;6.90;99.90;;;;;;5469819;26;19994;-77
2024/04/20 03:22:50;;;;;;;5.82;1.05;;;6.80;99.90;;;;;;5455688;26;20028;-76
2024/04/20 03:25:15;;;;;;;3.80;0.80;;;6.90;99.90;;;;;;5461740;26;20083;-77
2024/04/20 03:27:41;;;;;;;6.50;1.00;;;6.90;99.90;;;;;;5469946;26;20017;-77
2024/04/20 03:30:08;;;;;;;4.57;0.50;;;6.90;99.90;;;;;;5460354;26;20016;-76
2024/04/20 03:32:34;;;;;;;4.57;0.80;;;6.80;99.90;;;;;;5478646;26;20016;-76
2024/04/20 03:34:59;;;;;;;6.80;0.88;;;6.80;99.90;;;;;;5443732;26;20006;-76
2024/04/20 03:37:25;;;;;;;4.47;0.68;;;6.80;99.90;;;;;;5469405;26;20002;-76
2024/04/20 03:39:51;;;;;;;2.47;0.43;;;6.80;99.90;;;;;;5456329;26;20010;-75
2024/04/20 03:42:16;;;;;;;3.92;0.85;;;6.80;99.90;;;;;;5461197;26;20011;-76
2024/04/20 03:44:44;;;;;;;3.15;0.52;;;6.80;99.90;;;;;;5455307;26;19994;-75
2024/04/20 03:47:09;;;;;;;3.88;0.63;;;6.80;99.90;;;;;;5463868;26;20935;-76
2024/04/20 03:49:35;;;;;;;3.22;0.63;;;6.80;99.90;;;;;;5470167;26;20002;-76
2024/04/20 03:52:01;;;;;;;6.85;0.57;;;6.80;99.90;;;;;;5469758;26;20003;-76
2024/04/20 03:54:27;;;;;;;4.38;0.70;;;6.80;99.90;;;;;;5462303;26;20462;-76
2024/04/20 03:56:52;;;;;;;4.53;1.00;;;6.80;99.90;;;;;;5455329;26;20003;-76
2024/04/20 03:59:18;;;;;;;2.85;0.90;;;6.70;99.90;;;;;;5467275;26;20007;-76
2024/04/20 04:01:43;;;;;;;9.77;1.38;;;6.70;99.90;;;;;;5469307;26;20002;-75
2024/04/20 04:04:09;;;;;;;4.18;1.13;;;6.70;99.90;;;;;;5480689;26;20861;-76
2024/04/20 04:06:35;;;;;;;7.40;1.50;;;6.70;99.90;;;;;;5460267;26;20003;-77
2024/04/20 04:09:01;;;;;;;11.57;1.33;;;6.70;99.90;;;;;;5469257;26;19998;-78
2024/04/20 04:11:26;;;;;;;6.38;0.98;;;6.70;99.90;;;;;;5443003;26;20009;-78
2024/04/20 04:13:52;;;;;;;9.25;1.30;;;6.70;99.90;;;;;;5469174;26;20345;-78
2024/04/20 04:16:17;;;;;;;8.95;1.23;;;6.70;99.90;;;;;;5442757;26;20421;-78
2024/04/20 04:18:43;;;;;;;7.50;1.30;;;6.60;99.90;;;;;;5467595;26;20029;-78
2024/04/20 04:21:10;;;;;;;9.55;1.55;;;6.70;99.90;;;;;;5471936;26;20014;-78
2024/04/20 04:23:37;;;;;;;10.70;1.40;;;6.60;99.90;;;;;;5442301;26;20011;-77
2024/04/20 04:26:03;;;;;;;7.10;1.00;;;6.70;99.90;;;;;;5470155;26;20003;-77
2024/04/20 04:28:29;;;;;;;9.70;1.90;;;6.70;99.90;;;;;;5461278;26;20006;-77
2024/04/20 04:30:55;;;;;;;10.23;1.20;;;6.70;99.90;;;;;;5453148;26;20017;-77
2024/04/20 04:33:21;;;;;;;14.27;1.67;;;6.70;99.90;;;;;;5480055;26;20002;-76
2024/04/20 04:35:46;;;;;;;10.55;1.33;;;6.70;99.90;;;;;;5480297;26;19998;-77
2024/04/20 04:38:12;;;;;;;6.32;1.27;;;6.80;99.90;;;;;;5469704;26;19998;-76
2024/04/20 04:40:38;;;;;;;9.05;1.83;;;6.80;99.90;;;;;;5465343;26;20009;-76
2024/04/20 04:43:04;;;;;;;7.88;1.23;;;6.70;99.90;;;;;;5459465;26;19999;-76
2024/04/20 04:45:30;;;;;;;5.55;1.30;;;6.80;99.90;;;;;;5466661;26;20081;-76
2024/04/20 04:47:55;;;;;;;4.78;1.00;;;6.80;99.90;;;;;;5472459;26;19994;-76
2024/04/20 04:50:21;;;;;;;4.35;0.70;;;6.70;99.90;;;;;;5455143;26;20525;-76
2024/04/20 04:52:47;;;;;;;6.63;0.88;;;6.70;99.90;;;;;;5464785;26;20013;-76
2024/04/20 04:55:13;;;;;;;7.15;0.80;;;6.70;99.90;;;;;;5480890;26;20075;-76
2024/04/20 04:57:38;;;;;;;4.70;0.90;;;6.70;99.90;;;;;;5461286;26;20014;-76
2024/04/20 05:00:07;;;;;;;9.32;1.10;;;6.70;99.90;;;;;;5484115;26;20002;-76
2024/04/20 05:02:32;;;;;;;3.28;0.40;;;6.70;99.90;;;;;;5458580;26;20010;-77
2024/04/20 05:04:58;;;;;;;5.78;0.82;;;6.70;99.90;;;;;;5461833;26;20100;-77
2024/04/20 05:07:24;;;;;;;5.60;0.65;;;6.60;99.90;;;;;;5472429;26;20003;-77
2024/04/20 05:09:49;;;;;;;6.57;0.80;;;6.60;99.90;;;;;;5465908;26;20013;-76
2024/04/20 05:12:15;;;;;;;6.32;1.05;;;6.60;99.90;;;;;;5457747;26;20003;-76
2024/04/20 05:14:41;;;;;;;7.38;0.85;;;6.60;99.90;;;;;;5469250;26;20528;-76
2024/04/20 05:17:07;;;;;;;8.05;0.80;;;6.60;99.90;;;;;;5472882;26;20012;-76
2024/04/20 05:19:32;;;;;;;2.75;0.70;;;6.60;99.90;;;;;;5457822;26;20344;-76
2024/04/20 05:21:58;;;;;;;6.38;0.70;;;6.60;99.90;;;;;;5461823;26;19999;-76
2024/04/20 05:24:24;;;;;;;5.90;0.73;;;6.60;99.90;;;;;;5479901;26;20010;-76
2024/04/20 05:26:55;;;;;;;4.68;1.40;;;6.60;99.90;;;;;;5465580;26;20007;-76
2024/04/20 05:29:20;;;;;;;3.15;0.70;;;6.60;99.90;;;;;;5477326;26;20002;-74
2024/04/20 05:31:46;;;;;;;6.57;0.93;;;6.70;99.90;;;;;;5467457;26;20805;-76
2024/04/20 05:34:12;;;;;;;4.72;0.70;;;6.60;99.90;;;;;;5472395;26;20021;-76
2024/04/20 05:36:37;;;;;;;5.72;0.80;;;6.70;99.90;;;;;;5458757;26;20009;-76
2024/04/20 05:39:03;;;;;;;4.45;0.63;;;6.70;99.90;;;;;;5459679;26;20097;-76
2024/04/20 05:41:28;;;;;;;4.20;0.80;;;6.70;99.90;;;;;;5472548;26;20013;-76
2024/04/20 05:43:54;;;;;;;4.65;0.80;;;6.70;99.90;;;;;;5469056;26;20013;-75
2024/04/20 05:46:20;;;;;;;4.53;0.93;;;6.70;99.90;;;;;;5457580;26;20010;-76
2024/04/20 05:48:47;;;;;;;5.10;1.00;;;6.70;99.90;;;;;;5467045;26;20488;-77
2024/04/20 05:51:13;;;;;;;5.85;0.65;;;6.70;99.90;;;;;;5453557;26;20003;-78
2024/04/20 05:53:38;;;;;;;6.32;0.80;;;6.70;99.90;;;;;;5471888;26;20003;-77
2024/04/20 05:56:04;;;;;;;5.57;1.00;;;6.70;99.90;;;;;;5461444;26;20344;-77
2024/04/20 05:58:30;;;;;;;4.50;0.63;;;6.70;99.90;;;;;;5456410;26;20006;-77
2024/04/20 06:00:56;;;;;;;2.65;0.60;;;6.70;99.90;;;;;;5482879;26;20390;-76
2024/04/20 06:03:21;;;;;;;6.50;0.90;;;6.70;99.90;;;;;;5458909;26;20027;-77
2024/04/20 06:05:48;;;;;;;5.03;1.05;;;6.70;99.90;;;;;;5471463;26;20050;-77
2024/04/20 06:08:14;;;;;;;6.47;0.70;;;6.80;99.90;;;;;;5465556;26;20451;-77
2024/04/20 06:10:51;;;;;;;7.68;1.00;;;6.80;99.90;;;;;;5456931;26;19994;-76
2024/04/20 06:13:16;;;;;;;3.70;0.80;;;6.80;99.90;;;;;;5463334;26;20005;-76
2024/04/20 06:15:42;;;;;;;3.55;0.70;;;6.80;99.90;;;;;;5471948;26;20458;-77
2024/04/20 06:18:08;;;;;;;4.55;1.05;;;6.90;99.90;;;;;;5459121;26;20005;-77
2024/04/20 06:20:37;;;;;;;5.53;0.80;;;6.90;99.90;;;;;;5480389;26;20083;-77
2024/04/20 06:23:03;;;;;;;5.82;0.75;;;6.90;99.90;;;;;;5458304;26;20454;-78
2024/04/20 06:25:29;;;;;;;5.40;0.88;;;6.90;99.90;;;;;;5475395;26;20002;-78
2024/04/20 06:27:54;;;;;;;8.38;1.27;;;6.90;99.90;;;;;;5481286;26;20002;-79
2024/04/20 06:30:20;;;;;;;3.83;0.82;;;7.00;99.90;;;;;;5482218;26;20010;-79
2024/04/20 06:32:49;;;;;;;8.52;1.08;;;7.00;99.90;;;;;;5478187;26;19998;-78
2024/04/20 06:35:15;;;;;;;6.63;0.95;;;7.00;99.90;;;;;;5481879;26;20516;-78
2024/04/20 06:37:41;;;;;;;4.35;0.93;;;7.00;99.90;;;;;;5469261;26;20018;-77
2024/04/20 06:40:07;;;;;;;10.32;1.13;;;7.10;99.90;;;;;;5474335;26;20007;-77
2024/04/20 06:42:33;;;;;;;9.15;0.95;;;7.10;99.90;;;;;;5471736;26;20002;-79
2024/04/20 06:44:58;;;;;;;6.70;1.08;;;7.10;99.90;;;;;;5474666;26;20013;-80
2024/04/20 06:47:25;;;;;;;9.95;1.23;;;7.20;99.90;;;;;;5479289;26;20381;-79
2024/04/20 06:49:54;;;;;;;8.27;1.10;;;7.20;99.90;;;;;;5479844;26;20127;-77
2024/04/20 06:52:20;;;;;;;8.88;1.40;;;7.30;99.90;;;;;;5466735;26;20982;-78
2024/04/20 06:54:45;;;;;;;9.95;1.10;;;7.40;99.90;;;;;;5468859;26;20009;-78
2024/04/20 06:57:11;;;;;;;10.07;2.00;;;7.40;99.90;;;;;;5466777;26;20566;-77
2024/04/20 06:59:37;;;;;;;7.55;1.50;;;7.50;99.90;;;;;;5463469;26;20478;-77
2024/04/20 07:02:03;;;;;;;8.77;1.30;;;7.50;99.90;;;;;;5479174;26;20008;-78
2024/04/20 07:04:29;;;;;;;8.05;1.20;;;7.50;99.90;;;;;;5481800;26;20049;-79
2024/04/20 07:06:55;;;;;;;35.75;19.75;;;7.50;99.90;;;;;;5472437;26;20077;-78
2024/04/20 07:09:21;;;;;;;45.58;25.13;;;7.50;99.90;;;;;;5468426;26;20011;-78
2024/04/20 07:11:46;;;;;;;50.45;21.33;;;7.50;99.90;;;;;;5459722;26;20551;-78
2024/04/20 07:14:12;;;;;;;42.05;20.30;;;7.50;99.90;;;;;;5478849;26;19998;-78
2024/04/20 07:16:37;;;;;;;28.98;11.90;;;7.50;99.90;;;;;;5481912;26;19994;-79
2024/04/20 07:19:03;;;;;;;37.90;20.48;;;7.50;99.90;;;;;;5481110;26;20505;-79
2024/04/20 07:21:28;;;;;;;39.65;23.63;;;7.50;99.90;;;;;;5481660;26;20082;-78
2024/04/20 07:23:54;;;;;;;21.50;10.63;;;7.60;99.90;;;;;;5478869;26;19998;-77
2024/04/20 07:26:20;;;;;;;90.28;39.50;;;7.60;99.90;;;;;;5474873;26;20518;-78
2024/04/20 07:28:45;;;;;;;66.20;31.05;;;7.60;99.90;;;;;;5480701;26;20009;-77
2024/04/20 07:31:11;;;;;;;228.35;82.03;;;7.70;99.90;;;;;;5460119;26;20297;-78
2024/04/20 07:33:36;;;;;;;174.98;69.45;;;7.70;99.90;;;;;;5466298;26;20009;-77
2024/04/20 07:36:02;;;;;;;146.07;65.55;;;7.80;99.90;;;;;;5478421;26;20002;-75
2024/04/20 07:38:28;;;;;;;56.55;27.50;;;7.90;99.90;;;;;;5478042;26;20002;-76
2024/04/20 07:40:54;;;;;;;29.75;15.23;;;8.00;99.90;;;;;;5452555;26;20003;-76
2024/04/20 07:43:19;;;;;;;57.17;45.80;;;8.00;99.90;;;;;;5479288;26;19998;-76
2024/04/20 07:45:45;;;;;;;118.25;84.65;;;8.00;99.90;;;;;;5459289;26;20461;-76
2024/04/20 07:48:10;;;;;;;30.45;18.23;;;8.10;99.90;;;;;;5469169;26;20439;-76
2024/04/20 07:50:36;;;;;;;106.05;31.27;;;8.20;99.90;;;;;;5449573;26;20010;-76
2024/04/20 07:53:01;;;;;;;97.55;35.85;;;8.20;99.90;;;;;;5464279;26;20002;-76
2024/04/20 07:55:27;;;;;;;59.15;27.48;;;8.20;99.90;;;;;;5467603;26;20467;-76
2024/04/20 07:57:53;;;;;;;25.20;13.38;;;8.20;99.90;;;;;;5460336;26;20077;-75
2024/04/20 08:00:19;;;;;;;12.43;5.90;;;8.20;99.90;;;;;;5475912;26;20002;-76
2024/04/20 08:02:44;;;;;;;12.20;2.67;;;8.30;99.90;;;;;;5461192;26;20069;-77
2024/04/20 08:05:10;;;;;;;13.10;3.50;;;8.40;99.90;;;;;;5480347;26;19998;-78
2024/04/20 08:07:36;;;;;;;12.45;2.53;;;8.40;99.90;;;;;;5477384;26;19994;-77
2024/04/20 08:10:02;;;;;;;20.15;7.95;;;8.40;99.90;;;;;;5479740;26;20013;-78
2024/04/20 08:12:27;;;;;;;80.15;24.15;;;8.50;99.90;;;;;;5468846;26;20005;-77
2024/04/20 08:14:53;;;;;;;184.98;47.67;;;8.50;99.90;;;;;;5477004;26;19994;-78
2024/04/20 08:17:19;;;;;;;60.63;20.95;;;8.50;99.90;;;;;;5480247;26;20010;-77
2024/04/20 08:19:45;;;;;;;72.97;27.45;;;8.60;99.90;;;;;;5480647;26;19995;-77
2024/04/20 08:22:11;;;;;;;47.10;18.48;;;8.60;99.90;;;;;;5480958;26;20002;-77
2024/04/20 08:24:37;;;;;;;31.10;14.38;;;8.60;99.90;;;;;;5475085;26;20002;-79
2024/04/20 08:27:02;;;;;;;24.23;12.35;;;8.60;99.90;;;;;;5460532;26;20014;-78
2024/04/20 08:29:28;;;;;;;34.15;17.10;;;8.60;99.90;;;;;;5479623;26;20014;-78
2024/04/20 08:31:54;;;;;;;13.70;4.38;;;8.60;99.90;;;;;;5476935;26;20070;-78
2024/04/20 08:34:19;;;;;;;56.60;29.95;;;8.60;99.90;;;;;;5476565;26;20026;-79
2024/04/20 08:36:45;;;;;;;438.98;123.95;;;8.70;99.90;;;;;;5480363;26;19998;-79
2024/04/20 08:39:11;;;;;;;408.83;102.53;;;8.70;99.90;;;;;;5479237;26;20026;-77
2024/04/20 08:41:49;;;;;;;151.75;46.03;;;8.70;99.90;;;;;;5476121;26;19994;-79
2024/04/20 08:44:19;;;;;;;159.85;74.70;;;8.80;99.90;;;;;;5483247;26;20074;-79
2024/04/20 08:46:49;;;;;;;30.33;14.32;;;8.80;99.90;;;;;;5476252;26;20002;-79
2024/04/20 08:49:17;;;;;;;15.70;4.43;;;8.80;99.90;;;;;;5469593;26;20002;-79
2024/04/20 08:51:44;;;;;;;10.32;2.10;;;8.90;99.90;;;;;;5455933;26;20347;-78
2024/04/20 08:54:12;;;;;;;10.60;2.08;;;8.90;99.90;;;;;;5474007;26;20472;-78
2024/04/20 08:56:40;;;;;;;6.45;1.63;;;8.90;99.90;;;;;;5483045;26;20003;-79
2024/04/20 08:59:06;;;;;;;6.05;1.15;;;8.90;99.90;;;;;;5478448;26;20013;-78
2024/04/20 09:01:34;;;;;;;10.65;1.23;;;8.90;99.90;;;;;;5467201;26;20540;-77
2024/04/20 09:04:00;;;;;;;8.77;1.30;;;8.90;99.90;;;;;;5480548;26;19998;-78
2024/04/20 09:06:27;;;;;;;5.32;1.30;;;8.90;99.90;;;;;;5483272;26;19994;-77
2024/04/20 09:08:53;;;;;;;11.68;2.00;;;8.90;99.90;;;;;;5482843;26;20082;-79
2024/04/20 09:11:19;;;;;;;8.23;1.50;;;9.00;99.90;;;;;;5483862;26;20026;-78
2024/04/20 09:13:44;;;;;;;7.90;1.50;;;9.00;99.90;;;;;;5482677;26;20005;-78
2024/04/20 09:16:11;;;;;;;5.13;1.25;;;9.00;99.90;;;;;;5483907;26;20002;-79
2024/04/20 09:18:39;;;;;;;4.80;0.80;;;9.00;99.90;;;;;;5482082;26;20419;-79
2024/04/20 09:21:05;;;;;;;3.53;0.65;;;9.00;99.90;;;;;;5482055;26;20009;-78
2024/04/20 09:23:30;;;;;;;3.38;0.60;;;8.90;99.90;;;;;;5461654;26;20435;-78
2024/04/20 09:25:56;;;;;;;3.78;0.88;;;8.90;99.90;;;;;;5469900;26;20006;-79
2024/04/20 09:28:27;;;;;;;5.18;0.90;;;8.80;99.90;;;;;;5457348;26;20091;-78
2024/04/20 09:30:54;;;;;;;8.43;1.05;;;8.90;99.90;;;;;;5451924;26;20071;-78
2024/04/20 09:33:21;;;;;;;5.80;1.00;;;8.90;99.90;;;;;;5465034;26;20034;-79
2024/04/20 09:35:47;;;;;;;7.78;1.10;;;9.00;99.90;;;;;;5468769;26;20006;-79
2024/04/20 09:38:13;;;;;;;13.07;1.48;;;9.10;99.90;;;;;;5456201;26;20013;-78
2024/04/20 09:40:39;;;;;;;9.90;1.33;;;9.30;99.90;;;;;;5461900;26;20002;-80
2024/04/20 09:43:06;;;;;;;9.05;1.05;;;9.40;99.90;;;;;;5478616;26;20029;-80
2024/04/20 09:45:36;;;;;;;6.25;1.20;;;9.40;99.90;;;;;;5483425;26;20006;-79
2024/04/20 09:48:05;;;;;;;4.68;1.05;;;9.40;99.90;;;;;;5457152;26;20013;-79
2024/04/20 09:50:31;;;;;;;8.95;1.42;;;9.40;99.90;;;;;;5476013;26;20006;-78
2024/04/20 09:53:20;;;;;;;5.82;1.65;;;9.30;99.90;;;;;;5483075;26;20559;-79
2024/04/20 09:55:47;;;;;;;6.75;1.23;;;9.30;99.90;;;;;;5457851;26;19998;-78
2024/04/20 09:58:13;;;;;;;4.90;1.08;;;9.30;99.90;;;;;;5460075;26;20008;-78
2024/04/20 10:00:40;;;;;;;7.95;1.08;;;9.30;99.90;;;;;;5456744;26;20013;-78
2024/04/20 10:03:07;;;;;;;6.40;1.00;;;9.30;99.90;;;;;;5449202;26;20373;-78
2024/04/20 10:05:37;;;;;;;8.93;1.05;;;9.40;99.90;;;;;;5447271;26;20006;-78
2024/04/20 10:08:04;;;;;;;8.70;1.55;;;9.50;99.90;;;;;;5450115;26;20010;-78
2024/04/20 10:10:31;;;;;;;7.32;1.23;;;9.60;99.90;;;;;;5450398;26;20664;-78
2024/04/20 10:13:03;;;;;;;9.20;1.50;;;9.80;99.90;;;;;;5457845;26;20490;-77
2024/04/20 10:15:33;;;;;;;11.98;2.10;;;9.90;99.90;;;;;;5457639;26;20470;-79
2024/04/20 10:18:00;;;;;;;8.32;1.58;;;10.00;99.90;;;;;;5460929;26;20011;-77
2024/04/20 10:20:35;;;;;;;13.60;1.63;;;10.00;99.90;;;;;;5452175;26;20448;-78
2024/04/20 10:23:02;;;;;;;10.77;1.60;;;10.00;99.90;;;;;;5449225;26;20097;-78
2024/04/20 10:25:34;;;;;;;6.20;1.58;;;10.10;99.90;;;;;;5443638;26;19999;-78
2024/04/20 10:28:00;;;;;;;8.55;1.42;;;10.20;99.90;;;;;;5469199;26;20072;-80
2024/04/20 10:30:26;;;;;;;8.10;1.50;;;10.30;99.90;;;;;;5466797;26;20017;-79
2024/04/20 10:33:04;;;;;;;5.32;1.05;;;10.40;99.90;;;;;;5472399;26;20002;-80
2024/04/20 10:35:30;;;;;;;9.45;1.50;;;10.50;99.90;;;;;;5470622;26;20013;-80
2024/04/20 10:38:03;;;;;;;0.00;0.00;;;10.60;99.90;;;;;;5467242;26;20459;-81
2024/04/20 10:40:33;;;;;;;10.25;1.70;;;10.60;99.90;;;;;;5469909;26;19998;-79
2024/04/20 10:43:09;;;;;;;13.20;2.13;;;10.60;99.90;;;;;;5471933;26;20424;-79
2024/04/20 10:45:34;;;;;;;6.18;1.30;;;10.60;99.90;;;;;;5454315;26;20011;-78
2024/04/20 10:48:01;;;;;;;8.27;1.80;;;10.50;99.90;;;;;;5455995;26;20142;-80
2024/04/20 10:50:26;;;;;;;7.15;1.30;;;10.50;99.90;;;;;;5456589;26;19999;-79
2024/04/20 10:53:05;;;;;;;8.73;1.20;;;10.40;99.90;;;;;;5464801;26;20540;-79
2024/04/20 10:55:31;;;;;;;10.93;1.67;;;10.40;99.90;;;;;;5470465;26;20018;-79
2024/04/20 10:57:57;;;;;;;6.63;1.27;;;10.40;99.90;;;;;;5463099;26;20005;-79
2024/04/20 11:00:23;;;;;;;7.95;1.80;;;10.40;99.90;;;;;;5481422;26;20016;-79
2024/04/20 11:02:52;;;;;;;8.88;1.10;;;10.50;99.90;;;;;;5466550;26;19999;-79
2024/04/20 11:05:18;;;;;;;8.10;1.45;;;10.50;99.90;;;;;;5469920;26;20408;-79
2024/04/20 11:07:44;;;;;;;10.05;1.45;;;10.50;99.90;;;;;;5469766;26;20011;-80
2024/04/20 11:10:19;;;;;;;8.55;1.83;;;10.50;99.90;;;;;;5444214;26;19999;-79
2024/04/20 11:12:45;;;;;;;14.40;1.92;;;10.60;99.90;;;;;;5456971;26;20006;-79
2024/04/20 11:15:12;;;;;;;11.32;1.83;;;10.70;99.90;;;;;;5479686;26;20009;-80
2024/04/20 11:17:38;;;;;;;11.20;1.75;;;10.70;99.90;;;;;;5455190;26;20561;-78
2024/04/20 11:20:05;;;;;;;10.07;2.25;;;10.80;99.90;;;;;;5470967;26;20002;-79
2024/04/20 11:22:32;;;;;;;9.45;1.48;;;10.80;99.90;;;;;;5475523;26;20009;-80
2024/04/20 11:25:09;;;;;;;7.78;1.40;;;10.80;99.90;;;;;;5479059;26;20104;-79
2024/04/20 11:27:35;;;;;;;7.72;1.42;;;10.70;99.90;;;;;;5456057;26;20040;-80
2024/04/20 11:30:01;;;;;;;4.18;1.17;;;10.70;99.90;;;;;;5465863;26;20263;-79
2024/04/20 11:32:27;;;;;;;5.78;1.10;;;10.80;99.90;;;;;;5470980;26;20079;-80
2024/04/20 11:34:53;;;;;;;5.90;1.73;;;10.80;99.90;;;;;;5461030;26;20443;-80
2024/04/20 11:37:22;;;;;;;5.95;1.30;;;10.80;99.90;;;;;;5459127;26;20336;-80
2024/04/20 11:39:49;;;;;;;6.43;1.10;;;10.80;99.90;;;;;;5469780;26;20019;-81
2024/04/20 11:42:17;;;;;;;8.10;1.33;;;10.70;99.90;;;;;;5455142;26;20451;-80
2024/04/20 11:44:44;;;;;;;11.45;1.90;;;10.70;99.90;;;;;;5457038;26;20006;-80
2024/04/20 11:47:16;;;;;;;9.02;1.63;;;10.60;99.90;;;;;;5449122;26;20013;-80
2024/04/20 11:50:12;;;;;;;8.75;1.38;;;10.60;99.90;;;;;;5470923;26;20006;-80
2024/04/20 11:55:21;;;;;;;6.22;1.70;;;10.60;99.90;;;;;;5476701;26;20043;-80
2024/04/20 11:57:49;;;;;;;5.55;1.30;;;10.50;99.90;;;;;;5458858;26;20051;-80
2024/04/20 12:00:15;;;;;;;6.00;1.13;;;10.50;99.90;;;;;;5455525;26;20003;-79
2024/04/20 12:02:42;;;;;;;6.40;1.30;;;10.50;99.90;;;;;;5462819;26;20009;-79
2024/04/20 12:05:08;;;;;;;3.83;1.00;;;10.60;99.90;;;;;;5476978;26;20026;-81
2024/04/20 12:07:33;;;;;;;5.07;1.27;;;10.60;99.90;;;;;;5462445;26;20017;-78
2024/04/20 12:09:59;;;;;;;5.88;1.40;;;10.60;99.90;;;;;;5460575;26;20010;-79
2024/04/20 12:12:25;;;;;;;4.88;1.33;;;10.60;99.90;;;;;;5454517;26;20002;-79
2024/04/20 12:14:50;;;;;;;7.70;1.35;;;10.70;99.90;;;;;;5467217;26;20429;-80
2024/04/20 12:17:16;;;;;;;7.18;2.08;;;10.70;99.90;;;;;;5472810;26;20370;-80
2024/04/20 12:19:46;;;;;;;10.75;1.92;;;10.80;99.90;;;;;;5460166;26;20356;-80
2024/04/20 12:22:13;;;;;;;7.00;1.65;;;10.90;99.90;;;;;;5484301;26;20002;-80
2024/04/20 12:24:39;;;;;;;10.57;1.92;;;11.00;99.90;;;;;;5458500;26;20010;-80
2024/04/20 12:27:05;;;;;;;7.97;1.30;;;11.20;99.90;;;;;;5460730;26;20010;-80
2024/04/20 12:29:30;;;;;;;6.97;1.63;;;11.30;99.90;;;;;;5471803;26;20006;-80
2024/04/20 12:31:56;;;;;;;9.32;1.42;;;11.30;99.90;;;;;;5464139;26;20015;-80
2024/04/20 12:34:22;;;;;;;7.47;1.35;;;11.30;99.90;;;;;;5470673;26;19994;-80
2024/04/20 12:36:50;;;;;;;8.82;1.80;;;11.30;99.90;;;;;;5461894;26;20017;-80
2024/04/20 12:39:16;;;;;;;11.00;2.05;;;11.30;99.90;;;;;;5459631;26;20006;-79
2024/04/20 12:41:42;;;;;;;11.23;2.00;;;11.20;99.90;;;;;;5481809;26;20002;-77
2024/04/20 12:44:09;;;;;;;9.82;1.40;;;11.10;99.90;;;;;;5456725;26;20010;-78
2024/04/20 12:46:35;;;;;;;4.82;1.05;;;10.90;99.90;;;;;;5447301;26;20010;-78
2024/04/20 12:49:02;;;;;;;6.15;1.50;;;10.80;99.90;;;;;;5482320;26;20006;-78